createdAt,value
2018-04-19T00:00:21.267Z,1019.16
2018-04-19T00:01:01.678Z,1019.14
2018-04-19T00:01:42.055Z,1019.13
2018-04-19T00:02:22.460Z,1019.14
2018-04-19T00:03:02.819Z,1019.16
2018-04-19T00:03:43.208Z,1019.12
2018-04-19T00:04:23.631Z,1019.14
2018-04-19T00:05:04.051Z,1019.14
2018-04-19T00:05:44.463Z,1019.12
2018-04-19T00:06:24.843Z,1019.11
2018-04-19T00:07:05.213Z,1019.1
2018-04-19T00:07:45.612Z,1019.14
2018-04-19T00:08:26.040Z,1019.13
2018-04-19T00:09:06.460Z,1019.13
2018-04-19T00:09:46.848Z,1019.12
2018-04-19T00:10:27.240Z,1019.11
2018-04-19T00:11:07.699Z,1019.12
2018-04-19T00:11:48.077Z,1019.09
2018-04-19T00:12:28.429Z,1019.09
2018-04-19T00:13:08.902Z,1019.1
2018-04-19T00:13:49.277Z,1019.09
2018-04-19T00:14:29.648Z,1019.06
2018-04-19T00:15:10.105Z,1019.11
2018-04-19T00:15:50.417Z,1019.08
2018-04-19T00:16:30.823Z,1019.07
2018-04-19T00:17:11.202Z,1019.07
2018-04-19T00:17:51.645Z,1019.08
2018-04-19T00:18:31.991Z,1019.08
2018-04-19T00:19:12.398Z,1019.08
2018-04-19T00:19:52.848Z,1019.06
2018-04-19T00:20:33.233Z,1019.06
2018-04-19T00:21:13.576Z,1019.12
2018-04-19T00:21:54.057Z,1019.05
2018-04-19T00:22:34.484Z,1019.08
2018-04-19T00:23:14.755Z,1019.06
2018-04-19T00:23:55.196Z,1019.05
2018-04-19T00:24:35.580Z,1019.06
2018-04-19T00:25:15.995Z,1019.06
2018-04-19T00:25:56.449Z,1019.07
2018-04-19T00:26:36.749Z,1019.06
2018-04-19T00:27:17.157Z,1019.1
2018-04-19T00:27:57.569Z,1019.03
2018-04-19T00:28:38.016Z,1019.03
2018-04-19T00:29:18.356Z,1019.03
2018-04-19T00:29:58.759Z,1019.06
2018-04-19T00:30:39.185Z,1019.06
2018-04-19T00:31:19.611Z,1019.04
2018-04-19T00:31:59.981Z,1019.04
2018-04-19T00:32:40.442Z,1019.04
2018-04-19T00:33:20.827Z,1019.06
2018-04-19T00:34:01.206Z,1019.04
2018-04-19T00:34:41.584Z,1019.02
2018-04-19T00:35:22.049Z,1019
2018-04-19T00:36:02.422Z,1018.99
2018-04-19T00:36:42.902Z,1018.98
2018-04-19T00:37:23.271Z,1018.94
2018-04-19T00:38:03.589Z,1018.98
2018-04-19T00:38:44.097Z,1018.95
2018-04-19T00:39:24.490Z,1018.97
2018-04-19T00:40:04.904Z,1018.95
2018-04-19T00:40:45.343Z,1018.94
2018-04-19T00:41:25.665Z,1018.95
2018-04-19T00:42:06.037Z,1018.94
2018-04-19T00:42:46.556Z,1018.89
2018-04-19T00:43:26.957Z,1018.91
2018-04-19T00:44:07.321Z,1018.87
2018-04-19T00:44:47.704Z,1018.92
2018-04-19T00:45:28.121Z,1018.88
2018-04-19T00:46:08.478Z,1018.88
2018-04-19T00:46:48.871Z,1018.87
2018-04-19T00:47:29.333Z,1018.88
2018-04-19T00:48:09.668Z,1018.85
2018-04-19T00:48:50.107Z,1018.89
2018-04-19T00:49:30.569Z,1018.84
2018-04-19T00:50:10.992Z,1018.86
2018-04-19T00:50:51.363Z,1018.86
2018-04-19T00:51:31.728Z,1018.86
2018-04-19T00:52:12.171Z,1018.86
2018-04-19T00:52:52.579Z,1018.87
2018-04-19T00:53:33.004Z,1018.86
2018-04-19T00:54:13.333Z,1018.87
2018-04-19T00:54:53.752Z,1018.85
2018-04-19T00:55:34.183Z,1018.86
2018-04-19T00:56:14.552Z,1018.88
2018-04-19T00:56:54.921Z,1018.85
2018-04-19T00:57:35.352Z,1018.9
2018-04-19T00:58:15.757Z,1018.87
2018-04-19T00:58:56.135Z,1018.86
2018-04-19T00:59:36.531Z,1018.87
2018-04-19T01:00:16.931Z,1018.92
2018-04-19T01:00:57.414Z,1018.89
2018-04-19T01:01:37.748Z,1018.89
2018-04-19T01:02:18.158Z,1018.88
2018-04-19T01:02:58.651Z,1018.87
2018-04-19T01:03:39.077Z,1018.89
2018-04-19T01:04:19.502Z,1018.84
2018-04-19T01:04:59.851Z,1018.86
2018-04-19T01:05:40.237Z,1018.89
2018-04-19T01:06:20.764Z,1018.87
2018-04-19T01:07:01.073Z,1018.89
2018-04-19T01:07:41.486Z,1018.87
2018-04-19T01:08:21.910Z,1018.87
2018-04-19T01:09:02.421Z,1018.9
2018-04-19T01:09:42.829Z,1018.83
2018-04-19T01:10:23.381Z,1018.85
2018-04-19T01:11:03.687Z,1018.85
2018-04-19T01:11:44.122Z,1018.83
2018-04-19T01:12:24.561Z,1018.85
2018-04-19T01:13:04.987Z,1018.86
2018-04-19T01:13:45.455Z,1018.83
2018-04-19T01:14:25.771Z,1018.82
2018-04-19T01:15:06.322Z,1018.79
2018-04-19T01:15:46.718Z,1018.82
2018-04-19T01:16:27.088Z,1018.83
2018-04-19T01:17:07.480Z,1018.82
2018-04-19T01:17:47.867Z,1018.81
2018-04-19T01:18:28.244Z,1018.81
2018-04-19T01:19:08.725Z,1018.83
2018-04-19T01:19:49.049Z,1018.82
2018-04-19T01:20:29.452Z,1018.82
2018-04-19T01:21:09.899Z,1018.79
2018-04-19T01:21:50.193Z,1018.81
2018-04-19T01:22:30.615Z,1018.82
2018-04-19T01:23:11.033Z,1018.79
2018-04-19T01:23:51.491Z,1018.8
2018-04-19T01:24:31.862Z,1018.77
2018-04-19T01:25:12.185Z,1018.75
2018-04-19T01:25:52.560Z,1018.76
2018-04-19T01:26:32.990Z,1018.75
2018-04-19T01:27:13.373Z,1018.76
2018-04-19T01:27:53.797Z,1018.77
2018-04-19T01:28:34.156Z,1018.77
2018-04-19T01:29:14.567Z,1018.79
2018-04-19T01:29:54.968Z,1018.77
2018-04-19T01:30:35.427Z,1018.8
2018-04-19T01:31:15.760Z,1018.82
2018-04-19T01:31:56.196Z,1018.81
2018-04-19T01:32:36.562Z,1018.81
2018-04-19T01:33:16.998Z,1018.82
2018-04-19T01:33:57.418Z,1018.8
2018-04-19T01:34:37.772Z,1018.78
2018-04-19T01:35:18.173Z,1018.78
2018-04-19T01:35:58.596Z,1018.81
2018-04-19T01:36:39.000Z,1018.8
2018-04-19T01:37:19.353Z,1018.8
2018-04-19T01:39:47.063Z,1018.78
2018-04-19T01:40:27.484Z,1018.76
2018-04-19T01:41:07.855Z,1018.77
2018-04-19T01:41:48.269Z,1018.78
2018-04-19T01:42:28.641Z,1018.76
2018-04-19T01:43:09.021Z,1018.78
2018-04-19T01:43:49.415Z,1018.74
2018-04-19T01:44:29.821Z,1018.75
2018-04-19T01:45:10.167Z,1018.74
2018-04-19T01:45:50.571Z,1018.71
2018-04-19T01:46:30.967Z,1018.71
2018-04-19T01:47:11.347Z,1018.7
2018-04-19T01:47:51.804Z,1018.74
2018-04-19T01:48:32.207Z,1018.72
2018-04-19T01:49:12.562Z,1018.73
2018-04-19T01:49:52.977Z,1018.72
2018-04-19T01:50:33.426Z,1018.72
2018-04-19T01:51:13.752Z,1018.7
2018-04-19T01:51:54.167Z,1018.68
2018-04-19T01:52:34.571Z,1018.7
2018-04-19T01:53:14.996Z,1018.68
2018-04-19T01:53:55.366Z,1018.69
2018-04-19T01:54:35.805Z,1018.71
2018-04-19T01:55:16.208Z,1018.72
2018-04-19T01:55:56.500Z,1018.75
2018-04-19T01:56:36.937Z,1018.72
2018-04-19T01:57:17.258Z,1018.72
2018-04-19T01:57:57.690Z,1018.73
2018-04-19T01:58:38.089Z,1018.72
2018-04-19T01:59:18.469Z,1018.71
2018-04-19T01:59:58.927Z,1018.76
2018-04-19T02:00:39.237Z,1018.72
2018-04-19T02:01:19.631Z,1018.69
2018-04-19T02:01:59.948Z,1018.68
2018-04-19T02:02:40.339Z,1018.73
2018-04-19T02:04:37.791Z,1018.72
2018-04-19T02:05:18.144Z,1018.74
2018-04-19T02:05:58.583Z,1018.71
2018-04-19T02:06:38.967Z,1018.68
2018-04-19T02:07:19.412Z,1018.71
2018-04-19T02:07:59.793Z,1018.67
2018-04-19T02:08:40.310Z,1018.71
2018-04-19T02:09:20.629Z,1018.71
2018-04-19T02:10:01.034Z,1018.73
2018-04-19T02:10:41.472Z,1018.73
2018-04-19T02:11:21.778Z,1018.72
2018-04-19T02:12:02.221Z,1018.71
2018-04-19T02:12:42.574Z,1018.7
2018-04-19T02:13:23.014Z,1018.72
2018-04-19T02:14:03.430Z,1018.73
2018-04-19T02:14:43.815Z,1018.75
2018-04-19T02:15:24.358Z,1018.71
2018-04-19T02:16:04.647Z,1018.7
2018-04-19T02:16:45.128Z,1018.72
2018-04-19T02:17:25.499Z,1018.74
2018-04-19T02:18:05.872Z,1018.67
2018-04-19T02:18:46.246Z,1018.72
2018-04-19T02:19:26.634Z,1018.72
2018-04-19T02:20:07.073Z,1018.76
2018-04-19T02:20:47.424Z,1018.71
2018-04-19T02:21:27.897Z,1018.71
2018-04-19T02:22:08.171Z,1018.68
2018-04-19T02:22:48.674Z,1018.67
2018-04-19T02:23:29.000Z,1018.67
2018-04-19T02:24:09.399Z,1018.69
2018-04-19T02:24:49.773Z,1018.68
2018-04-19T02:25:30.172Z,1018.66
2018-04-19T02:26:10.580Z,1018.67
2018-04-19T02:26:50.968Z,1018.65
2018-04-19T02:27:31.425Z,1018.66
2018-04-19T02:28:11.846Z,1018.65
2018-04-19T02:28:52.300Z,1018.67
2018-04-19T02:29:32.597Z,1018.63
2018-04-19T02:30:13.081Z,1018.63
2018-04-19T02:30:53.481Z,1018.64
2018-04-19T02:31:33.809Z,1018.63
2018-04-19T02:32:14.250Z,1018.62
2018-04-19T02:32:54.630Z,1018.64
2018-04-19T02:33:35.061Z,1018.61
2018-04-19T02:34:15.410Z,1018.61
2018-04-19T02:34:55.887Z,1018.59
2018-04-19T02:35:36.298Z,1018.59
2018-04-19T02:36:16.601Z,1018.6
2018-04-19T02:36:57.111Z,1018.59
2018-04-19T02:37:37.517Z,1018.59
2018-04-19T02:38:17.841Z,1018.59
2018-04-19T02:38:58.321Z,1018.6
2018-04-19T02:39:38.782Z,1018.57
2018-04-19T02:40:19.153Z,1018.59
2018-04-19T02:40:59.570Z,1018.57
2018-04-19T02:41:39.997Z,1018.54
2018-04-19T02:42:20.423Z,1018.54
2018-04-19T02:43:00.785Z,1018.57
2018-04-19T02:43:41.178Z,1018.56
2018-04-19T02:44:21.601Z,1018.58
2018-04-19T02:45:02.000Z,1018.59
2018-04-19T02:45:42.462Z,1018.53
2018-04-19T02:46:22.803Z,1018.55
2018-04-19T02:47:03.236Z,1018.57
2018-04-19T02:47:43.609Z,1018.56
2018-04-19T02:48:24.002Z,1018.54
2018-04-19T02:49:04.455Z,1018.55
2018-04-19T02:49:44.795Z,1018.54
2018-04-19T02:50:25.212Z,1018.56
2018-04-19T02:51:05.600Z,1018.49
2018-04-19T02:51:45.952Z,1018.5
2018-04-19T02:53:39.343Z,1018.51
2018-04-19T02:54:19.726Z,1018.51
2018-04-19T02:55:00.144Z,1018.51
2018-04-19T02:55:40.543Z,1018.5
2018-04-19T02:56:20.993Z,1018.51
2018-04-19T02:57:01.337Z,1018.51
2018-04-19T02:57:41.748Z,1018.5
2018-04-19T02:58:22.147Z,1018.47
2018-04-19T02:59:02.581Z,1018.51
2018-04-19T02:59:43.065Z,1018.52
2018-04-19T03:00:23.443Z,1018.49
2018-04-19T03:01:03.882Z,1018.49
2018-04-19T03:01:44.187Z,1018.53
2018-04-19T03:02:24.616Z,1018.46
2018-04-19T03:03:05.014Z,1018.46
2018-04-19T03:03:45.473Z,1018.49
2018-04-19T03:04:25.857Z,1018.44
2018-04-19T03:05:06.229Z,1018.47
2018-04-19T03:05:46.623Z,1018.45
2018-04-19T03:06:27.035Z,1018.41
2018-04-19T03:07:07.433Z,1018.45
2018-04-19T03:07:47.830Z,1018.44
2018-04-19T03:08:28.238Z,1018.38
2018-04-19T03:09:08.671Z,1018.4
2018-04-19T03:09:49.096Z,1018.38
2018-04-19T03:10:29.507Z,1018.35
2018-04-19T03:11:09.890Z,1018.39
2018-04-19T03:11:50.324Z,1018.34
2018-04-19T03:12:30.781Z,1018.3
2018-04-19T03:13:11.126Z,1018.32
2018-04-19T03:13:51.549Z,1018.35
2018-04-19T03:14:31.988Z,1018.34
2018-04-19T03:15:12.356Z,1018.34
2018-04-19T03:15:52.807Z,1018.32
2018-04-19T03:16:33.365Z,1018.34
2018-04-19T03:17:13.664Z,1018.35
2018-04-19T03:17:54.055Z,1018.3
2018-04-19T03:18:34.485Z,1018.33
2018-04-19T03:19:14.835Z,1018.35
2018-04-19T03:19:55.216Z,1018.28
2018-04-19T03:20:35.724Z,1018.28
2018-04-19T03:21:16.106Z,1018.3
2018-04-19T03:21:56.482Z,1018.31
2018-04-19T03:22:36.912Z,1018.32
2018-04-19T03:23:17.176Z,1018.33
2018-04-19T03:23:57.608Z,1018.27
2018-04-19T03:24:37.966Z,1018.29
2018-04-19T03:25:18.480Z,1018.32
2018-04-19T03:25:58.868Z,1018.3
2018-04-19T03:26:39.292Z,1018.29
2018-04-19T03:27:19.693Z,1018.29
2018-04-19T03:28:00.106Z,1018.27
2018-04-19T03:28:40.488Z,1018.32
2018-04-19T03:29:20.983Z,1018.31
2018-04-19T03:30:01.243Z,1018.32
2018-04-19T03:30:41.652Z,1018.32
2018-04-19T03:31:22.130Z,1018.31
2018-04-19T03:32:02.549Z,1018.32
2018-04-19T03:32:42.890Z,1018.34
2018-04-19T03:33:23.533Z,1018.34
2018-04-19T03:34:03.818Z,1018.38
2018-04-19T03:34:44.205Z,1018.36
2018-04-19T03:35:24.553Z,1018.33
2018-04-19T03:36:04.971Z,1018.38
2018-04-19T03:36:45.342Z,1018.37
2018-04-19T03:37:25.921Z,1018.4
2018-04-19T03:38:06.188Z,1018.35
2018-04-19T03:38:46.585Z,1018.38
2018-04-19T03:39:26.962Z,1018.35
2018-04-19T03:40:07.425Z,1018.41
2018-04-19T03:40:47.767Z,1018.37
2018-04-19T03:41:28.210Z,1018.37
2018-04-19T03:42:08.676Z,1018.4
2018-04-19T03:42:48.960Z,1018.34
2018-04-19T03:43:29.391Z,1018.38
2018-04-19T03:44:09.831Z,1018.37
2018-04-19T03:44:50.172Z,1018.36
2018-04-19T03:45:30.583Z,1018.34
2018-04-19T03:46:11.133Z,1018.33
2018-04-19T03:46:51.520Z,1018.34
2018-04-19T03:47:31.840Z,1018.33
2018-04-19T03:48:12.294Z,1018.32
2018-04-19T03:48:52.661Z,1018.28
2018-04-19T03:49:33.115Z,1018.31
2018-04-19T03:50:13.503Z,1018.31
2018-04-19T03:50:54.021Z,1018.33
2018-04-19T03:51:34.373Z,1018.29
2018-04-19T03:52:14.830Z,1018.32
2018-04-19T03:52:55.209Z,1018.29
2018-04-19T03:53:35.679Z,1018.28
2018-04-19T03:54:15.991Z,1018.3
2018-04-19T03:54:56.450Z,1018.27
2018-04-19T03:55:36.919Z,1018.29
2018-04-19T03:56:17.318Z,1018.27
2018-04-19T03:56:57.701Z,1018.27
2018-04-19T03:57:38.140Z,1018.24
2018-04-19T03:58:18.679Z,1018.24
2018-04-19T03:58:59.090Z,1018.26
2018-04-19T03:59:39.496Z,1018.24
2018-04-19T04:00:19.826Z,1018.23
2018-04-19T04:01:00.284Z,1018.2
2018-04-19T04:01:40.780Z,1018.19
2018-04-19T04:02:21.256Z,1018.22
2018-04-19T04:03:01.659Z,1018.21
2018-04-19T04:41:12.446Z,1018.15
2018-04-19T04:41:52.618Z,1018.13
2018-04-19T04:42:32.987Z,1018.07
2018-04-19T04:43:13.432Z,1018.09
2018-04-19T04:43:53.786Z,1018.12
2018-04-19T04:44:34.279Z,1018.11
2018-04-19T04:45:14.725Z,1018.11
2018-04-19T04:45:55.166Z,1018.08
2018-04-19T04:46:35.479Z,1018.11
2018-04-19T04:47:15.890Z,1018.12
2018-04-19T04:47:56.331Z,1018.09
2018-04-19T04:48:36.736Z,1018.09
2018-04-19T04:49:17.234Z,1018.08
2018-04-19T04:49:57.585Z,1018.12
2018-04-19T04:50:38.030Z,1018.09
2018-04-19T04:51:18.408Z,1018.13
2018-04-19T04:51:58.873Z,1018.1
2018-04-19T04:52:39.150Z,1018.13
2018-04-19T04:53:19.667Z,1018.13
2018-04-19T04:54:00.024Z,1018.06
2018-04-19T04:54:40.459Z,1018.11
2018-04-19T04:55:20.809Z,1018.16
2018-04-19T04:56:01.283Z,1018.14
2018-04-19T04:56:41.696Z,1018.09
2018-04-19T04:57:22.181Z,1018.15
2018-04-19T04:58:02.623Z,1018.13
2018-04-19T04:58:43.133Z,1018.15
2018-04-19T04:59:23.365Z,1018.16
2018-04-19T05:00:03.881Z,1018.19
2018-04-19T05:00:44.197Z,1018.2
2018-04-19T05:01:24.697Z,1018.21
2018-04-19T05:02:05.028Z,1018.2
2018-04-19T05:02:45.442Z,1018.23
2018-04-19T05:03:25.869Z,1018.19
2018-04-19T05:04:06.286Z,1018.22
2018-04-19T05:04:46.730Z,1018.23
2018-04-19T05:05:27.124Z,1018.22
2018-04-19T05:06:07.485Z,1018.26
2018-04-19T05:06:47.820Z,1018.26
2018-04-19T05:07:28.216Z,1018.26
2018-04-19T05:08:08.691Z,1018.26
2018-04-19T05:08:49.053Z,1018.3
2018-04-19T05:09:29.450Z,1018.29
2018-04-19T05:10:09.844Z,1018.27
2018-04-19T05:10:50.249Z,1018.27
2018-04-19T05:11:30.631Z,1018.33
2018-04-19T05:12:11.045Z,1018.34
2018-04-19T05:12:51.458Z,1018.34
2018-04-19T05:13:31.909Z,1018.3
2018-04-19T05:14:12.234Z,1018.38
2018-04-19T05:14:52.630Z,1018.37
2018-04-19T05:15:33.053Z,1018.33
2018-04-19T05:16:13.554Z,1018.34
2018-04-19T05:16:54.012Z,1018.27
2018-04-19T05:17:34.392Z,1018.27
2018-04-19T05:18:14.743Z,1018.3
2018-04-19T05:18:55.296Z,1018.31
2018-04-19T05:19:35.674Z,1018.35
2018-04-19T05:20:16.073Z,1018.36
2018-04-19T05:20:56.490Z,1018.35
2018-04-19T05:21:36.948Z,1018.36
2018-04-19T05:22:17.294Z,1018.34
2018-04-19T05:22:57.685Z,1018.38
2018-04-19T05:23:38.095Z,1018.38
2018-04-19T05:24:18.483Z,1018.36
2018-04-19T05:24:58.921Z,1018.38
2018-04-19T05:25:39.369Z,1018.38
2018-04-19T05:26:19.781Z,1018.35
2018-04-19T05:27:00.137Z,1018.4
2018-04-19T05:27:40.924Z,1018.42
2018-04-19T05:28:21.362Z,1018.41
2018-04-19T05:29:01.824Z,1018.41
2018-04-19T05:29:42.191Z,1018.41
2018-04-19T05:30:22.523Z,1018.43
2018-04-19T05:31:02.979Z,1018.41
2018-04-19T05:31:43.397Z,1018.42
2018-04-19T05:32:23.809Z,1018.45
2018-04-19T05:33:04.170Z,1018.44
2018-04-19T05:33:44.659Z,1018.45
2018-04-19T05:34:25.612Z,1018.47
2018-04-19T05:35:06.032Z,1018.47
2018-04-19T05:35:46.469Z,1018.45
2018-04-19T05:36:26.812Z,1018.42
2018-04-19T05:37:07.247Z,1018.48
2018-04-19T05:37:47.696Z,1018.5
2018-04-19T05:38:28.140Z,1018.48
2018-04-19T05:39:08.651Z,1018.45
2018-04-19T05:39:49.057Z,1018.45
2018-04-19T05:40:29.514Z,1018.46
2018-04-19T05:41:09.937Z,1018.46
2018-04-19T05:41:50.410Z,1018.47
2018-04-19T05:42:30.860Z,1018.47
2018-04-19T05:43:11.373Z,1018.43
2018-04-19T05:43:51.814Z,1018.51
2018-04-19T05:44:32.264Z,1018.49
2018-04-19T05:45:12.638Z,1018.52
2018-04-19T05:45:53.176Z,1018.52
2018-04-19T05:46:39.087Z,1018.47
2018-04-19T05:47:19.041Z,1018.56
2018-04-19T05:47:59.537Z,1018.55
2018-04-19T05:48:40.062Z,1018.58
2018-04-19T05:49:20.433Z,1018.55
2018-04-19T05:50:00.822Z,1018.6
2018-04-19T05:50:41.206Z,1018.6
2018-04-19T05:51:22.368Z,1018.56
2018-04-19T05:52:02.779Z,1018.56
2018-04-19T05:52:43.358Z,1018.56
2018-04-19T05:53:23.718Z,1018.59
2018-04-19T05:54:04.216Z,1018.58
2018-04-19T05:54:44.742Z,1018.61
2018-04-19T05:55:25.007Z,1018.62
2018-04-19T05:56:05.429Z,1018.61
2018-04-19T05:56:46.028Z,1018.61
2018-04-19T05:57:26.605Z,1018.62
2018-04-19T05:58:07.016Z,1018.61
2018-04-19T05:58:47.631Z,1018.64
2018-04-19T05:59:28.177Z,1018.65
2018-04-19T06:00:08.575Z,1018.65
2018-04-19T06:00:49.028Z,1018.67
2018-04-19T06:01:29.379Z,1018.62
2018-04-19T06:03:27.514Z,1018.63
2018-04-19T06:04:08.488Z,1018.66
2018-04-19T06:04:48.887Z,1018.63
2018-04-19T06:05:29.274Z,1018.62
2018-04-19T06:06:09.745Z,1018.61
2018-04-19T06:06:50.079Z,1018.64
2018-04-19T06:07:30.474Z,1018.62
2018-04-19T06:08:10.876Z,1018.58
2018-04-19T06:08:51.439Z,1018.57
2018-04-19T06:09:31.949Z,1018.59
2018-04-19T06:10:12.357Z,1018.59
2018-04-19T06:10:52.809Z,1018.61
2018-04-19T06:11:33.242Z,1018.62
2018-04-19T06:12:13.691Z,1018.63
2018-04-19T06:12:54.082Z,1018.61
2018-04-19T06:13:37.500Z,1018.61
2018-04-19T06:14:17.941Z,1018.61
2018-04-19T06:14:58.301Z,1018.59
2018-04-19T06:15:38.717Z,1018.59
2018-04-19T06:16:19.229Z,1018.59
2018-04-19T06:16:59.547Z,1018.6
2018-04-19T06:17:40.012Z,1018.6
2018-04-19T06:18:20.508Z,1018.62
2018-04-19T06:19:01.730Z,1018.6
2018-04-19T06:19:42.495Z,1018.57
2018-04-19T06:20:22.926Z,1018.62
2018-04-19T06:21:03.334Z,1018.58
2018-04-19T06:21:43.786Z,1018.63
2018-04-19T06:22:24.195Z,1018.6
2018-04-19T06:23:04.625Z,1018.61
2018-04-19T06:23:45.037Z,1018.6
2018-04-19T06:24:25.588Z,1018.62
2018-04-19T06:25:06.051Z,1018.62
2018-04-19T06:25:46.507Z,1018.61
2018-04-19T06:26:26.882Z,1018.64
2018-04-19T06:27:07.294Z,1018.62
2018-04-19T06:27:47.728Z,1018.65
2018-04-19T06:28:28.108Z,1018.64
2018-04-19T06:29:08.712Z,1018.59
2018-04-19T06:29:48.999Z,1018.62
2018-04-19T06:31:44.781Z,1018.61
2018-04-19T06:32:25.773Z,1018.61
2018-04-19T06:33:06.315Z,1018.63
2018-04-19T06:33:46.806Z,1018.63
2018-04-19T06:34:27.629Z,1018.6
2018-04-19T06:35:07.980Z,1018.59
2018-04-19T06:35:48.950Z,1018.59
2018-04-19T06:36:29.537Z,1018.59
2018-04-19T06:37:10.327Z,1018.6
2018-04-19T06:37:50.624Z,1018.6
2018-04-19T06:38:30.973Z,1018.58
2018-04-19T06:39:11.469Z,1018.59
2018-04-19T06:39:51.839Z,1018.59
2018-04-19T06:40:33.889Z,1018.62
2018-04-19T06:43:18.218Z,1018.59
2018-04-19T06:43:58.786Z,1018.57
2018-04-19T06:44:39.121Z,1018.57
2018-04-19T06:45:19.640Z,1018.6
2018-04-19T06:45:59.995Z,1018.58
2018-04-19T06:46:40.858Z,1018.57
2018-04-19T06:47:21.274Z,1018.61
2018-04-19T06:48:02.822Z,1018.59
2018-04-19T06:48:43.042Z,1018.62
2018-04-19T06:49:23.468Z,1018.59
2018-04-19T06:50:04.000Z,1018.58
2018-04-19T06:50:45.407Z,1018.59
2018-04-19T06:51:25.451Z,1018.61
2018-04-19T06:52:05.856Z,1018.56
2018-04-19T06:52:46.332Z,1018.56
2018-04-19T06:53:26.706Z,1018.55
2018-04-19T06:54:07.439Z,1018.56
2018-04-19T06:54:47.616Z,1018.57
2018-04-19T06:55:28.355Z,1018.54
2018-04-19T06:56:09.297Z,1018.52
2018-04-19T06:56:49.711Z,1018.53
2018-04-19T06:57:30.193Z,1018.53
2018-04-19T06:58:10.875Z,1018.56
2018-04-19T06:58:52.267Z,1018.5
2018-04-19T06:59:32.205Z,1018.53
2018-04-19T07:00:12.767Z,1018.55
2018-04-19T07:00:53.094Z,1018.54
2018-04-19T07:01:33.731Z,1018.52
2018-04-19T07:02:14.115Z,1018.51
2018-04-19T07:02:55.063Z,1018.51
2018-04-19T07:03:35.476Z,1018.56
2018-04-19T07:04:16.020Z,1018.52
2018-04-19T07:04:56.320Z,1018.55
2018-04-19T07:05:36.723Z,1018.54
2018-04-19T07:06:17.214Z,1018.53
2018-04-19T07:08:40.707Z,1018.55
2018-04-19T07:09:21.184Z,1018.53
2018-04-19T07:10:01.926Z,1018.55
2018-04-19T07:10:42.289Z,1018.58
2018-04-19T07:11:22.907Z,1018.59
2018-04-19T07:12:03.466Z,1018.6
2018-04-19T07:12:43.772Z,1018.56
2018-04-19T07:13:24.211Z,1018.58
2018-04-19T07:14:04.702Z,1018.56
2018-04-19T07:14:45.279Z,1018.5
2018-04-19T07:15:25.637Z,1018.59
2018-04-19T07:16:06.127Z,1018.57
2018-04-19T07:16:46.777Z,1018.52
2018-04-19T07:17:28.257Z,1018.58
2018-04-19T07:18:07.779Z,1018.53
2018-04-19T07:18:48.220Z,1018.58
2018-04-19T07:19:28.782Z,1018.51
2018-04-19T07:20:09.280Z,1018.57
2018-04-19T07:20:49.713Z,1018.56
2018-04-19T07:21:30.222Z,1018.53
2018-04-19T07:23:59.068Z,1018.52
2018-04-19T07:24:39.481Z,1018.59
2018-04-19T07:25:20.046Z,1018.56
2018-04-19T07:26:00.449Z,1018.52
2018-04-19T07:26:41.008Z,1018.52
2018-04-19T07:27:21.566Z,1018.56
2018-04-19T07:28:02.002Z,1018.56
2018-04-19T07:28:42.376Z,1018.52
2018-04-19T07:29:22.822Z,1018.54
2018-04-19T07:30:03.295Z,1018.51
2018-04-19T07:30:44.612Z,1018.55
2018-04-19T07:31:24.293Z,1018.56
2018-04-19T07:32:04.725Z,1018.59
2018-04-19T07:32:45.203Z,1018.55
2018-04-19T07:33:25.597Z,1018.54
2018-04-19T07:34:06.156Z,1018.56
2018-04-19T07:34:46.461Z,1018.55
2018-04-19T07:35:27.042Z,1018.56
2018-04-19T07:36:07.376Z,1018.55
2018-04-19T07:36:48.182Z,1018.57
2018-04-19T07:37:29.432Z,1018.56
2018-04-19T07:38:10.201Z,1018.55
2018-04-19T07:38:50.677Z,1018.53
2018-04-19T07:39:31.410Z,1018.52
2018-04-19T07:40:11.576Z,1018.55
2018-04-19T07:40:51.959Z,1018.51
2018-04-19T07:41:32.496Z,1018.5
2018-04-19T07:42:12.840Z,1018.52
2018-04-19T07:42:53.236Z,1018.51
2018-04-19T07:43:33.797Z,1018.49
2018-04-19T07:44:14.224Z,1018.54
2018-04-19T07:44:54.944Z,1018.51
2018-04-19T07:45:35.127Z,1018.48
2018-04-19T07:46:15.517Z,1018.51
2018-04-19T07:46:56.311Z,1018.48
2018-04-19T07:47:36.826Z,1018.51
2018-04-19T07:48:17.348Z,1018.49
2018-04-19T07:48:57.831Z,1018.52
2018-04-19T07:49:38.282Z,1018.48
2018-04-19T07:50:18.645Z,1018.5
2018-04-19T07:52:39.130Z,1018.48
2018-04-19T07:53:19.874Z,1018.47
2018-04-19T07:54:00.313Z,1018.5
2018-04-19T07:54:40.838Z,1018.49
2018-04-19T07:55:21.135Z,1018.5
2018-04-19T07:56:02.956Z,1018.52
2018-04-19T07:56:43.516Z,1018.51
2018-04-19T07:57:23.926Z,1018.5
2018-04-19T07:58:04.290Z,1018.49
2018-04-19T07:58:48.003Z,1018.5
2018-04-19T07:59:28.429Z,1018.51
2018-04-19T08:00:08.783Z,1018.5
2018-04-19T08:00:49.324Z,1018.53
2018-04-19T08:01:29.771Z,1018.53
2018-04-19T08:02:10.137Z,1018.51
2018-04-19T08:02:51.552Z,1018.63
2018-04-19T08:03:31.943Z,1018.54
2018-04-19T08:04:12.430Z,1018.54
2018-04-19T08:04:53.176Z,1018.55
2018-04-19T08:05:33.629Z,1018.61
2018-04-19T08:06:14.062Z,1018.59
2018-04-19T08:06:56.210Z,1018.54
2018-04-19T08:07:38.252Z,1018.53
2018-04-19T08:08:18.561Z,1018.56
2018-04-19T08:08:59.077Z,1018.56
2018-04-19T08:09:39.538Z,1018.56
2018-04-19T08:10:20.195Z,1018.55
2018-04-19T08:11:00.558Z,1018.6
2018-04-19T08:11:43.522Z,1018.57
2018-04-19T08:12:24.556Z,1018.58
2018-04-19T08:13:05.075Z,1018.58
2018-04-19T08:13:45.696Z,1018.54
2018-04-19T08:14:28.812Z,1018.55
2018-04-19T08:15:09.174Z,1018.58
2018-04-19T08:15:53.610Z,1018.6
2018-04-19T08:16:34.048Z,1018.56
2018-04-19T08:17:14.460Z,1018.56
2018-04-19T08:17:55.260Z,1018.53
2018-04-19T08:18:35.710Z,1018.54
2018-04-19T08:19:16.139Z,1018.55
2018-04-19T08:19:56.580Z,1018.48
2018-04-19T08:20:38.766Z,1018.5
2018-04-19T08:21:20.796Z,1018.56
2018-04-19T08:22:02.129Z,1018.49
2018-04-19T08:22:42.561Z,1018.54
2018-04-19T08:23:24.691Z,1018.52
2018-04-19T08:24:05.483Z,1018.53
2018-04-19T08:24:50.270Z,1018.58
2018-04-19T08:25:31.039Z,1018.55
2018-04-19T08:26:11.292Z,1018.55
2018-04-19T08:26:54.803Z,1018.51
2018-04-19T08:27:38.907Z,1018.53
2018-04-19T08:28:19.287Z,1018.55
2018-04-19T08:29:01.591Z,1018.45
2018-04-19T08:29:42.176Z,1018.53
2018-04-19T08:30:24.479Z,1018.51
2018-04-19T08:31:05.189Z,1018.53
2018-04-19T08:31:46.114Z,1018.55
2018-04-19T08:32:26.483Z,1018.51
2018-04-19T08:33:08.610Z,1018.53
2018-04-19T08:33:52.083Z,1018.51
2018-04-19T08:34:33.873Z,1018.58
2018-04-19T08:35:15.073Z,1018.56
2018-04-19T08:35:56.057Z,1018.51
2018-04-19T08:36:36.219Z,1018.51
2018-04-19T08:37:16.808Z,1018.55
2018-04-19T08:37:57.262Z,1018.56
2018-04-19T08:38:37.709Z,1018.54
2018-04-19T08:39:19.845Z,1018.58
2018-04-19T08:40:00.517Z,1018.51
2018-04-19T08:40:41.084Z,1018.48
2018-04-19T08:41:21.959Z,1018.49
2018-04-19T08:42:02.039Z,1018.49
2018-04-19T08:42:42.472Z,1018.51
2018-04-19T08:43:22.908Z,1018.47
2018-04-19T08:44:03.316Z,1018.46
2018-04-19T08:44:43.693Z,1018.45
2018-04-19T08:45:24.094Z,1018.43
2018-04-19T08:46:04.495Z,1018.44
2018-04-19T08:46:45.144Z,1018.48
2018-04-19T08:47:25.515Z,1018.47
2018-04-19T08:48:05.926Z,1018.45
2018-04-19T08:48:46.396Z,1018.44
2018-04-19T08:49:26.877Z,1018.46
2018-04-19T08:50:07.288Z,1018.46
2018-04-19T08:50:47.718Z,1018.48
2018-04-19T08:51:30.446Z,1018.43
2018-04-19T08:52:12.473Z,1018.51
2018-04-19T08:52:54.607Z,1018.43
2018-04-19T08:53:35.151Z,1018.45
2018-04-19T08:54:16.504Z,1018.43
2018-04-19T08:54:56.944Z,1018.42
2018-04-19T08:55:37.494Z,1018.44
2018-04-19T08:56:17.837Z,1018.45
2018-04-19T08:56:58.288Z,1018.46
2018-04-19T08:57:38.934Z,1018.45
2018-04-19T08:58:19.366Z,1018.38
2018-04-19T08:58:59.757Z,1018.36
2018-04-19T08:59:40.460Z,1018.34
2018-04-19T09:00:20.740Z,1018.39
2018-04-19T09:01:01.163Z,1018.38
2018-04-19T09:03:29.390Z,1018.38
2018-04-19T09:04:09.819Z,1018.32
2018-04-19T09:04:50.257Z,1018.29